Time;durP1;ratioP1;P1;durP2;ratioP2;P2;SDS_P1;SDS_P2;PMS_P1;PMS_P2;Temp;Humidity;BMP_temperature;BMP_pressure;BME280_temperature;BME280_humidity;BME280_pressure;Samples;Min_cycle;Max_cycle;Signal;HPM_P1;HPM_P2
2022/02/13 00:02:23;;;;;;;12.38;7.22;;;;;;;2.98;70.35;100245.78;4995197;28;20134;-64
2022/02/13 00:05:11;;;;;;;8.98;6.28;;;;;;;2.98;69.61;100250.88;4996764;28;20052;-64
2022/02/13 00:08:00;;;;;;;9.60;7.40;;;;;;;2.96;70.04;100247.38;4995680;28;20080;-64
2022/02/13 00:10:47;;;;;;;11.60;7.20;;;;;;;2.95;69.95;100242.19;4995525;28;20088;-64
2022/02/13 00:13:39;;;;;;;10.90;7.22;;;;;;;2.95;70.26;100244.75;4996432;28;20576;-64
2022/02/13 00:16:26;;;;;;;11.23;7.03;;;;;;;2.95;69.88;100245.59;4994979;28;20048;-64
2022/02/13 00:19:10;;;;;;;10.45;7.40;;;;;;;2.94;69.85;100236.16;4995358;28;20406;-64
2022/02/13 00:21:57;;;;;;;9.75;7.35;;;;;;;2.94;69.86;100227.63;4996307;28;20045;-64
2022/02/13 00:24:43;;;;;;;11.15;6.97;;;;;;;2.94;69.51;100219.94;4996200;28;20116;-64
2022/02/13 00:27:30;;;;;;;12.50;6.95;;;;;;;2.92;69.73;100213.88;4996093;28;20049;-65
2022/02/13 00:30:16;;;;;;;12.95;7.38;;;;;;;2.91;70.35;100225.78;4995666;28;20108;-63
2022/02/13 00:33:02;;;;;;;11.43;6.93;;;;;;;2.91;70.12;100210.41;4994951;28;20053;-64
2022/02/13 00:35:51;;;;;;;12.95;9.02;;;;;;;2.92;69.84;100206.19;4994894;28;20181;-64
2022/02/13 00:38:38;;;;;;;10.88;6.70;;;;;;;2.94;69.86;100218.25;4995007;28;20580;-64
2022/02/13 00:41:28;;;;;;;14.52;7.50;;;;;;;2.92;69.52;100208.75;4995660;28;20109;-64
2022/02/13 00:44:12;;;;;;;10.95;7.75;;;;;;;2.91;70.04;100196.75;4994754;28;20069;-65
2022/02/13 00:46:56;;;;;;;8.15;7.30;;;;;;;2.89;69.90;100191.53;4994356;28;20097;-64
2022/02/13 00:49:39;;;;;;;13.95;8.38;;;;;;;2.88;70.03;100188.09;4994478;28;20093;-63
2022/02/13 00:52:26;;;;;;;12.45;8.30;;;;;;;2.88;69.85;100194.91;4995521;28;20509;-64
2022/02/13 00:55:13;;;;;;;11.30;7.28;;;;;;;2.85;69.71;100190.50;4996042;28;20148;-64
2022/02/13 00:58:00;;;;;;;10.65;8.02;;;;;;;2.87;69.63;100199.16;4995168;28;20421;-64
2022/02/13 01:00:44;;;;;;;9.38;7.35;;;;;;;2.84;69.65;100204.09;4994843;28;20085;-64
2022/02/13 01:03:31;;;;;;;12.93;7.32;;;;;;;2.83;70.12;100197.22;4995046;28;20056;-65
2022/02/13 01:06:17;;;;;;;9.07;7.32;;;;;;;2.84;69.76;100203.25;4995010;28;20150;-63
2022/02/13 01:09:07;;;;;;;10.73;7.20;;;;;;;2.83;69.50;100198.94;4995361;28;20049;-64
2022/02/13 01:11:51;;;;;;;11.60;6.43;;;;;;;2.82;69.22;100200.59;4994132;28;20049;-64
2022/02/13 01:14:37;;;;;;;12.40;8.00;;;;;;;2.80;69.70;100201.31;4994840;28;20576;-64
2022/02/13 01:17:23;;;;;;;8.55;7.38;;;;;;;2.81;70.17;100203.94;4994234;28;20054;-64
2022/02/13 01:20:13;;;;;;;10.52;7.13;;;;;;;2.80;70.03;100199.66;4995065;28;20457;-64
2022/02/13 01:22:57;;;;;;;16.65;8.95;;;;;;;2.79;69.87;100195.34;4993960;28;20052;-64
2022/02/13 01:25:46;;;;;;;14.98;8.18;;;;;;;2.80;69.40;100209.00;4994906;28;20053;-64
2022/02/13 01:28:36;;;;;;;11.75;7.20;;;;;;;2.79;69.43;100204.69;4993159;28;20044;-64
2022/02/13 01:31:25;;;;;;;10.93;6.90;;;;;;;2.84;70.21;100200.69;4993884;28;20112;-64
2022/02/13 01:34:12;;;;;;;15.27;8.30;;;;;;;2.83;69.79;100206.59;4994509;28;20044;-63
2022/02/13 01:36:56;;;;;;;13.25;8.13;;;;;;;2.81;70.12;100195.41;4994836;28;20406;-64
2022/02/13 01:39:45;;;;;;;10.40;6.68;;;;;;;2.80;69.59;100186.88;4994596;28;20045;-64
2022/02/13 01:42:31;;;;;;;11.00;6.50;;;;;;;2.81;69.85;100180.91;4993802;28;20119;-64
2022/02/13 01:45:18;;;;;;;14.75;7.80;;;;;;;2.79;69.44;100179.09;4993440;28;20082;-64
2022/02/13 01:48:02;;;;;;;9.93;5.97;;;;;;;2.78;69.79;100174.75;4993392;28;20053;-64
2022/02/13 01:50:53;;;;;;;8.65;7.18;;;;;;;2.79;69.75;100173.97;4993656;28;20125;-64
2022/02/13 01:53:43;;;;;;;12.55;7.47;;;;;;;2.76;69.82;100163.56;4994325;28;20037;-64
2022/02/13 01:56:30;;;;;;;8.77;6.35;;;;;;;2.73;69.79;100175.41;4993251;28;20101;-65
2022/02/13 01:59:14;;;;;;;10.15;7.05;;;;;;;2.74;69.73;100171.19;4994492;28;20398;-64
2022/02/13 02:02:00;;;;;;;10.02;7.20;;;;;;;2.71;69.11;100169.38;4993073;28;20061;-64
2022/02/13 02:04:50;;;;;;;12.45;7.45;;;;;;;2.71;69.72;100171.03;4994490;28;20453;-64
2022/02/13 02:07:37;;;;;;;12.88;7.32;;;;;;;2.69;69.42;100158.16;4993497;28;20077;-64
2022/02/13 02:10:22;;;;;;;10.65;7.00;;;;;;;2.68;69.17;100160.63;4994345;28;20081;-64
2022/02/13 02:13:14;;;;;;;11.02;6.85;;;;;;;2.68;69.37;100148.72;4992981;28;20477;-64
2022/02/13 02:15:59;;;;;;;13.77;6.93;;;;;;;2.69;69.49;100145.38;4994429;28;20085;-64
2022/02/13 02:18:49;;;;;;;12.93;7.88;;;;;;;2.68;69.41;100146.16;4994815;28;20041;-63
2022/02/13 02:21:33;;;;;;;11.15;6.97;;;;;;;2.67;69.93;100161.44;4993027;28;20433;-65
2022/02/13 02:24:17;;;;;;;13.25;8.10;;;;;;;2.67;69.35;100146.97;4994357;28;20097;-64
2022/02/13 02:27:01;;;;;;;12.57;7.43;;;;;;;2.66;69.22;100140.09;4993998;28;20080;-65
2022/02/13 02:29:48;;;;;;;;;;;;;;;2.67;68.98;100140.94;4993712;28;20089;-64
2022/02/13 02:32:37;;;;;;;8.88;6.97;;;;;;;2.67;69.32;100128.16;4993979;28;19925;-64
2022/02/13 02:35:30;;;;;;;8.77;6.47;;;;;;;2.68;69.70;100114.56;4992901;28;20516;-64
2022/02/13 02:38:15;;;;;;;14.02;7.75;;;;;;;2.69;69.88;100118.88;4993252;28;20523;-63
2022/02/13 02:40:58;;;;;;;;;;;;;;;2.67;69.94;100110.25;4996080;28;20105;-64
2022/02/13 02:43:49;;;;;;;9.38;6.50;;;;;;;2.67;69.93;100111.13;4997027;28;20052;-64
2022/02/13 02:46:33;;;;;;;9.85;6.50;;;;;;;2.70;70.17;100116.41;4997603;28;20066;-64
2022/02/13 02:49:16;;;;;;;15.00;8.32;;;;;;;2.74;69.45;100110.63;4998012;28;20049;-63
2022/02/13 02:52:05;;;;;;;11.80;7.00;;;;;;;2.76;69.95;100107.25;4996829;28;20045;-64
2022/02/13 02:54:51;;;;;;;9.88;8.50;;;;;;;2.76;69.84;100105.59;4996850;28;20045;-64
2022/02/13 02:57:39;;;;;;;12.35;6.95;;;;;;;2.77;69.65;100099.66;4997625;28;20109;-63
2022/02/13 03:00:25;;;;;;;10.60;7.13;;;;;;;2.79;69.78;100086.94;4996710;28;20512;-64
2022/02/13 03:03:12;;;;;;;9.07;7.22;;;;;;;2.79;69.63;100082.72;4997006;28;20104;-64
2022/02/13 03:05:56;;;;;;;12.10;6.88;;;;;;;2.78;69.87;100080.06;4996730;28;20050;-64
2022/02/13 03:08:40;;;;;;;10.27;7.47;;;;;;;2.77;69.87;100078.28;4997269;28;20137;-64
2022/02/13 03:11:25;;;;;;;9.68;6.18;;;;;;;2.76;70.00;100066.31;4996143;28;20553;-64
2022/02/13 03:14:15;;;;;;;13.27;7.82;;;;;;;2.74;69.76;100063.69;4997553;28;20130;-64
2022/02/13 03:17:06;;;;;;;9.15;7.13;;;;;;;2.72;70.17;100061.06;4996489;28;20069;-64
2022/02/13 03:19:53;;;;;;;16.95;7.30;;;;;;;2.69;69.99;100058.34;4996403;28;20089;-63
2022/02/13 03:22:42;;;;;;;12.93;7.93;;;;;;;2.73;69.61;100064.47;4996890;28;20509;-64
2022/02/13 03:25:26;;;;;;;8.68;7.28;;;;;;;2.74;69.94;100061.97;4997206;28;20045;-64
2022/02/13 03:28:15;;;;;;;7.82;6.38;;;;;;;2.78;70.22;100059.56;4997078;28;20081;-64
2022/02/13 03:31:04;;;;;;;9.63;7.50;;;;;;;2.77;70.08;100056.16;4996255;28;20126;-64
2022/02/13 03:33:54;;;;;;;9.70;7.38;;;;;;;2.79;70.23;100044.31;4996080;28;20045;-64
2022/02/13 03:36:38;;;;;;;13.02;8.30;;;;;;;2.83;69.73;100047.88;4996728;28;20064;-64
2022/02/13 03:39:22;;;;;;;8.70;7.45;;;;;;;2.85;69.93;100046.28;4997085;28;20093;-65
2022/02/13 03:42:09;;;;;;;12.95;6.93;;;;;;;2.84;70.04;100041.97;4996995;28;20048;-64
2022/02/13 03:44:59;;;;;;;12.18;7.88;;;;;;;2.81;69.92;100036.69;4996012;28;20414;-64
2022/02/13 03:47:48;;;;;;;11.07;7.25;;;;;;;2.79;69.80;100044.31;4996688;28;20465;-64
2022/02/13 03:50:38;;;;;;;9.82;6.35;;;;;;;2.77;69.98;100038.25;4995882;28;20410;-65
2022/02/13 03:53:27;;;;;;;10.73;8.07;;;;;;;2.77;69.84;100037.34;4994758;28;20104;-65
2022/02/13 03:56:16;;;;;;;9.27;7.30;;;;;;;2.73;70.35;100031.22;4995677;28;20110;-64
2022/02/13 03:59:01;;;;;;;11.13;6.78;;;;;;;2.69;70.33;100026.75;4996595;28;20054;-64
2022/02/13 04:01:50;;;;;;;9.45;7.13;;;;;;;2.68;70.07;100030.09;4996178;28;20085;-64
2022/02/13 04:04:36;;;;;;;10.57;7.22;;;;;;;2.63;70.10;100027.34;4996264;28;20113;-64
2022/02/13 04:07:23;;;;;;;9.02;6.38;;;;;;;2.65;70.04;100032.53;4996477;28;20049;-64
2022/02/13 04:10:16;;;;;;;11.90;7.57;;;;;;;2.66;69.60;100030.03;4994928;28;20520;-63
2022/02/13 04:13:02;;;;;;;10.25;6.40;;;;;;;2.65;69.88;100022.31;4996037;28;20438;-64
2022/02/13 04:15:52;;;;;;;9.68;7.28;;;;;;;2.61;69.75;100018.69;4996100;28;20582;-64
2022/02/13 04:18:41;;;;;;;11.77;7.05;;;;;;;2.61;70.16;100021.25;4995524;28;20125;-65
2022/02/13 04:21:25;;;;;;;11.85;8.48;;;;;;;2.61;70.03;100013.59;4995986;28;20050;-64
2022/02/13 04:24:15;;;;;;;13.30;8.38;;;;;;;2.62;70.02;100004.25;4995182;28;20097;-65
2022/02/13 04:27:04;;;;;;;13.38;6.75;;;;;;;2.58;69.97;99996.41;4995226;28;20516;-64
2022/02/13 04:29:56;;;;;;;10.40;8.07;;;;;;;2.56;70.05;99994.59;4996161;28;20049;-64
2022/02/13 04:32:40;;;;;;;10.98;7.75;;;;;;;2.58;70.02;100010.88;4994630;28;20520;-64
2022/02/13 04:35:28;;;;;;;10.52;7.85;;;;;;;2.57;69.64;99993.75;4996052;28;20136;-64
2022/02/13 04:38:18;;;;;;;10.55;7.85;;;;;;;2.55;69.92;99988.59;4994744;28;20050;-65
2022/02/13 04:41:06;;;;;;;9.77;7.35;;;;;;;2.54;69.86;99985.97;4994927;28;20061;-64
2022/02/13 04:43:50;;;;;;;12.23;8.00;;;;;;;2.53;69.85;99985.06;4994872;28;20141;-63
2022/02/13 04:46:39;;;;;;;10.20;7.93;;;;;;;2.54;69.78;99980.84;4995848;28;20049;-63
2022/02/13 04:49:26;;;;;;;9.65;7.70;;;;;;;2.53;69.70;99984.22;4994808;28;20049;-63
2022/02/13 04:52:15;;;;;;;8.68;6.45;;;;;;;2.54;69.65;99988.53;4995224;28;20053;-64
2022/02/13 04:55:05;;;;;;;11.50;7.72;;;;;;;2.53;70.21;99973.97;4995564;28;20105;-64
2022/02/13 04:57:54;;;;;;;11.10;7.38;;;;;;;2.51;70.04;99975.59;4994871;28;20057;-64
2022/02/13 05:00:41;;;;;;;10.57;8.30;;;;;;;2.53;69.67;99966.31;4994185;28;20112;-65
2022/02/13 05:03:31;;;;;;;10.52;7.50;;;;;;;2.49;69.76;99966.94;4994956;28;20069;-64
2022/02/13 05:06:15;;;;;;;11.68;7.15;;;;;;;2.48;69.86;99960.06;4994004;28;20045;-64
2022/02/13 05:09:00;;;;;;;13.35;8.52;;;;;;;2.46;69.44;99965.13;4995154;28;20057;-64
2022/02/13 05:11:48;;;;;;;9.48;6.45;;;;;;;2.43;70.09;99960.72;4995185;28;20518;-65
2022/02/13 05:14:38;;;;;;;8.32;6.28;;;;;;;2.42;70.19;99955.56;4994616;28;20049;-65
2022/02/13 05:17:29;;;;;;;10.20;6.78;;;;;;;2.42;69.67;99961.53;4993979;28;20058;-63
2022/02/13 05:20:12;;;;;;;9.35;6.35;;;;;;;2.39;69.62;99950.28;4994192;28;20501;-65
2022/02/13 05:22:59;;;;;;;8.75;6.88;;;;;;;2.37;69.93;99934.88;4994899;28;20052;-64
2022/02/13 05:25:46;;;;;;;8.88;7.70;;;;;;;2.36;69.40;99934.78;4994114;28;20045;-64
2022/02/13 05:28:33;;;;;;;10.90;7.22;;;;;;;2.38;69.91;99935.75;4995025;28;20084;-64
2022/02/13 05:31:19;;;;;;;10.93;8.30;;;;;;;2.33;69.52;99932.09;4993463;28;20461;-64
2022/02/13 05:34:06;;;;;;;11.23;7.25;;;;;;;2.33;69.52;99932.97;4994713;28;20134;-63
2022/02/13 05:36:53;;;;;;;10.73;6.85;;;;;;;2.32;69.96;99923.53;4993931;28;20100;-63
2022/02/13 05:39:43;;;;;;;9.40;7.32;;;;;;;2.33;69.57;99919.31;4994633;28;20081;-64
2022/02/13 05:42:29;;;;;;;7.53;6.63;;;;;;;2.33;69.94;99916.75;4993826;28;20135;-64
2022/02/13 05:45:16;;;;;;;13.93;8.55;;;;;;;2.33;69.52;99911.66;4994410;28;20406;-63
2022/02/13 05:48:03;;;;;;;9.50;6.82;;;;;;;2.35;69.40;99915.13;4994512;28;20069;-64
2022/02/13 05:50:47;;;;;;;11.10;7.93;;;;;;;2.33;70.04;99904.84;4993723;28;20100;-63
2022/02/13 05:53:31;;;;;;;9.32;7.20;;;;;;;2.34;69.67;99893.81;4993315;28;20129;-64
2022/02/13 05:56:16;;;;;;;9.23;7.13;;;;;;;2.34;69.56;99895.47;4994083;28;20053;-64
2022/02/13 05:59:04;;;;;;;;;;;;;;;2.30;69.67;99891.91;4994196;28;20092;-64
2022/02/13 06:01:55;;;;;;;9.32;6.90;;;;;;;2.28;69.82;99885.81;4993362;28;20281;-64
2022/02/13 06:04:39;;;;;;;10.93;7.57;;;;;;;2.27;69.76;99882.41;4994478;28;20529;-64
2022/02/13 06:07:26;;;;;;;11.40;7.68;;;;;;;2.24;69.92;99882.25;4994247;28;20532;-64
2022/02/13 06:10:14;;;;;;;9.82;7.38;;;;;;;2.26;69.67;99872.09;4994221;28;20457;-64
2022/02/13 06:13:03;;;;;;;14.40;7.47;;;;;;;2.27;69.81;99856.84;4993416;28;20053;-64
2022/02/13 06:15:54;;;;;;;8.35;6.55;;;;;;;2.27;69.81;99867.06;4992628;28;20053;-64
2022/02/13 06:18:41;;;;;;;10.10;6.43;;;;;;;2.25;69.80;99849.91;4993516;28;20520;-63
2022/02/13 06:21:31;;;;;;;8.82;6.47;;;;;;;2.23;69.26;99849.81;4994132;28;20049;-65
2022/02/13 06:24:15;;;;;;;12.55;7.55;;;;;;;2.23;69.72;99837.03;4994125;28;20053;-63
2022/02/13 06:27:02;;;;;;;9.77;7.85;;;;;;;2.23;69.56;99831.06;4994280;28;20555;-64
2022/02/13 06:29:52;;;;;;;9.80;7.50;;;;;;;2.22;69.59;99837.84;4993778;28;20108;-64
2022/02/13 06:32:39;;;;;;;11.68;7.70;;;;;;;2.24;69.69;99835.38;4992790;28;20050;-65
2022/02/13 06:35:26;;;;;;;9.80;6.95;;;;;;;2.24;69.65;99826.00;4992970;28;20521;-64
2022/02/13 06:38:16;;;;;;;10.68;6.70;;;;;;;2.23;69.80;99820.81;4993201;28;20069;-63
2022/02/13 06:41:03;;;;;;;10.55;6.60;;;;;;;2.24;69.59;99825.13;4993884;28;20057;-64
2022/02/13 06:43:47;;;;;;;10.65;7.63;;;;;;;2.22;69.75;99825.03;4993254;28;20077;-63
2022/02/13 06:46:36;;;;;;;10.02;6.00;;;;;;;2.24;69.83;99814.91;4993948;28;20404;-63
2022/02/13 06:49:26;;;;;;;10.20;6.80;;;;;;;2.25;69.77;99814.09;4993722;28;20088;-64
2022/02/13 06:52:15;;;;;;;12.13;7.68;;;;;;;2.25;69.86;99819.22;4992983;28;20049;-64
2022/02/13 06:55:02;;;;;;;9.30;6.10;;;;;;;2.25;70.16;99814.97;4992864;28;20045;-65
2022/02/13 06:57:49;;;;;;;8.90;6.32;;;;;;;2.27;69.29;99810.78;4992910;28;20104;-64
2022/02/13 07:00:33;;;;;;;9.82;6.60;;;;;;;2.25;69.41;99811.53;4992859;28;20138;-65
2022/02/13 07:03:22;;;;;;;8.88;7.35;;;;;;;2.25;69.33;99804.72;4993298;28;20093;-64
2022/02/13 07:06:07;;;;;;;9.60;6.85;;;;;;;2.25;69.47;99809.84;4992812;28;20053;-64
2022/02/13 07:08:54;;;;;;;9.60;6.57;;;;;;;2.24;69.95;99809.78;4993814;28;20060;-64
2022/02/13 07:11:43;;;;;;;8.55;6.28;;;;;;;2.23;69.29;99808.03;4993354;28;20117;-64
2022/02/13 07:14:33;;;;;;;10.65;6.60;;;;;;;2.22;69.83;99801.16;4992925;28;20126;-64
2022/02/13 07:17:17;;;;;;;9.10;6.15;;;;;;;2.23;69.54;99803.78;4992909;28;20465;-64
2022/02/13 07:20:06;;;;;;;10.63;6.18;;;;;;;2.23;69.45;99800.38;4993694;28;20053;-64
2022/02/13 07:22:56;;;;;;;10.32;5.85;;;;;;;2.23;69.82;99801.22;4993722;28;20582;-64
2022/02/13 07:25:48;;;;;;;9.38;6.50;;;;;;;2.24;69.87;99799.56;4992795;28;20449;-64
2022/02/13 07:31:36;;;;;;;8.98;5.93;;;;;;;2.25;69.41;99801.31;4996913;28;20576;-64
2022/02/13 07:34:23;;;;;;;9.52;6.28;;;;;;;2.25;69.66;99809.00;4997126;28;20508;-64
2022/02/13 07:37:13;;;;;;;7.80;6.00;;;;;;;2.26;69.56;99808.16;4996289;28;20116;-64
2022/02/13 07:40:02;;;;;;;8.13;5.80;;;;;;;2.26;69.70;99810.72;4996960;28;20108;-64
2022/02/13 07:42:48;;;;;;;12.73;6.90;;;;;;;2.27;69.81;99803.13;4995967;28;20053;-64
2022/02/13 07:45:33;;;;;;;8.23;5.72;;;;;;;2.26;69.15;99795.38;4996400;28;20061;-64
2022/02/13 07:48:19;;;;;;;9.13;5.43;;;;;;;2.25;69.32;99801.31;4996841;28;20045;-64
2022/02/13 07:51:04;;;;;;;8.27;6.03;;;;;;;2.23;69.20;99788.44;4995768;28;20048;-64
2022/02/13 07:53:50;;;;;;;12.32;6.53;;;;;;;2.25;69.87;99786.84;4995588;28;20533;-64
2022/02/13 07:56:40;;;;;;;11.88;6.28;;;;;;;2.26;69.43;99793.69;4995957;28;20166;-64
2022/02/13 07:59:27;;;;;;;8.55;7.43;;;;;;;2.27;69.58;99809.91;4995697;28;20056;-65
2022/02/13 08:02:14;;;;;;;9.25;6.85;;;;;;;2.26;69.43;99797.91;4996134;28;20061;-65
2022/02/13 08:05:01;;;;;;;8.07;5.70;;;;;;;2.25;69.66;99793.66;4995310;28;20050;-64
2022/02/13 08:07:46;;;;;;;8.02;6.05;;;;;;;2.24;69.32;99802.97;4996288;28;20109;-64
2022/02/13 08:10:36;;;;;;;9.55;6.55;;;;;;;2.26;69.50;99803.03;4996363;28;20049;-64
2022/02/13 08:13:25;;;;;;;11.48;6.00;;;;;;;2.25;69.26;99793.66;4995298;28;20105;-64
2022/02/13 08:16:10;;;;;;;9.02;6.43;;;;;;;2.28;69.36;99798.88;4995357;28;20046;-64
2022/02/13 08:18:53;;;;;;;9.18;6.50;;;;;;;2.27;69.41;99792.91;4996403;28;20124;-63
2022/02/13 08:21:40;;;;;;;8.77;5.78;;;;;;;2.28;69.38;99801.44;4996082;28;20065;-65
2022/02/13 08:24:27;;;;;;;9.40;5.78;;;;;;;2.28;69.30;99786.09;4995953;28;20092;-63
2022/02/13 08:27:17;;;;;;;7.00;5.63;;;;;;;2.30;68.95;99802.38;4995436;28;20053;-64
2022/02/13 08:30:02;;;;;;;9.27;6.10;;;;;;;2.33;68.91;99794.00;4996057;28;20073;-64
2022/02/13 08:32:48;;;;;;;11.50;5.57;;;;;;;2.32;68.87;99787.97;4995723;28;20057;-63
2022/02/13 08:35:33;;;;;;;9.32;5.85;;;;;;;2.32;68.85;99784.56;4995092;28;20053;-64
2022/02/13 08:38:17;;;;;;;;;;;;;;;2.32;69.25;99790.53;4995791;28;20053;-64
2022/02/13 08:41:01;;;;;;;8.25;6.22;;;;;;;2.32;69.35;99777.75;4994957;28;20388;-64
2022/02/13 08:43:45;;;;;;;11.82;6.47;;;;;;;2.34;68.60;99783.81;4995920;28;20057;-64
2022/02/13 08:46:34;;;;;;;9.93;6.75;;;;;;;2.34;69.03;99786.38;4995358;28;20509;-64
2022/02/13 08:49:23;;;;;;;7.72;6.30;;;;;;;2.35;68.55;99788.13;4994868;28;20041;-65
2022/02/13 08:52:12;;;;;;;9.10;5.90;;;;;;;2.39;68.94;99792.59;4994425;28;20505;-64
2022/02/13 08:54:56;;;;;;;7.63;5.68;;;;;;;2.39;68.96;99789.13;4994606;28;20096;-64
2022/02/13 08:57:45;;;;;;;9.73;6.40;;;;;;;2.41;68.47;99792.63;4995299;28;20470;-64
2022/02/13 09:00:32;;;;;;;7.88;5.63;;;;;;;2.42;69.27;99781.59;4994592;28;20069;-63
2022/02/13 09:03:16;;;;;;;7.40;6.03;;;;;;;2.44;68.83;99777.44;4993969;28;20073;-63
2022/02/13 09:06:00;;;;;;;8.95;7.45;;;;;;;2.48;69.29;99781.88;4995428;28;20469;-63
2022/02/13 09:08:45;;;;;;;9.13;6.28;;;;;;;2.50;68.92;99764.88;4995459;28;20053;-63
2022/02/13 09:11:28;;;;;;;;;;;;;;;2.52;69.21;99759.88;4995611;28;20126;-64
2022/02/13 09:14:12;;;;;;;9.60;6.20;;;;;;;2.53;69.17;99767.59;4995031;28;19924;-63
2022/02/13 09:16:56;;;;;;;8.35;6.82;;;;;;;2.55;68.79;99763.41;4995724;28;20061;-64
2022/02/13 09:19:40;;;;;;;11.73;6.70;;;;;;;2.58;69.26;99760.09;4994656;28;20049;-64
2022/02/13 09:22:24;;;;;;;;;;;;;;;2.59;69.22;99777.22;4995533;28;20050;-64
2022/02/13 09:25:09;;;;;;;10.05;6.88;;;;;;;2.60;69.26;99758.50;4993838;28;20484;-64
2022/02/13 09:27:53;;;;;;;;;;;;;;;2.63;69.25;99750.97;4994380;28;20046;-64
2022/02/13 09:30:37;;;;;;;9.93;6.50;;;;;;;2.66;69.45;99761.34;4993753;28;20011;-64
2022/02/13 09:33:23;;;;;;;11.30;7.32;;;;;;;2.71;69.28;99751.28;4994579;28;20112;-65
2022/02/13 09:36:07;;;;;;;9.32;7.57;;;;;;;2.76;68.92;99739.56;4994940;28;20142;-63
2022/02/13 09:38:51;;;;;;;11.05;7.35;;;;;;;2.79;69.23;99739.72;4994679;28;20054;-64
2022/02/13 09:41:37;;;;;;;;;;;;;;;2.81;69.21;99743.19;4995159;28;20057;-64
2022/02/13 09:44:23;;;;;;;10.50;7.38;;;;;;;2.85;69.46;99733.97;4994388;28;19921;-64
2022/02/13 09:47:09;;;;;;;10.93;6.93;;;;;;;2.88;69.21;99724.72;4993800;28;20410;-64
2022/02/13 09:49:53;;;;;;;11.02;7.75;;;;;;;2.94;69.22;99729.22;4992775;28;20109;-64
2022/02/13 09:52:37;;;;;;;11.50;7.97;;;;;;;2.99;69.42;99711.50;4993339;28;20548;-63
2022/02/13 09:55:22;;;;;;;10.80;6.70;;;;;;;3.04;69.35;99710.84;4994441;28;20402;-64
2022/02/13 09:58:07;;;;;;;19.30;8.35;;;;;;;3.08;69.68;99693.06;4993501;28;20471;-64
2022/02/13 10:00:59;;;;;;;9.73;7.55;;;;;;;3.12;69.93;99700.94;4994630;28;20046;-64
2022/02/13 10:03:46;;;;;;;12.60;7.45;;;;;;;3.17;69.14;99698.56;4993457;28;20085;-64
2022/02/13 10:06:30;;;;;;;8.23;6.53;;;;;;;3.21;69.61;99695.31;4994139;28;20073;-65
2022/02/13 10:09:14;;;;;;;10.23;6.97;;;;;;;3.25;69.37;99686.94;4993972;28;20405;-64
2022/02/13 10:12:02;;;;;;;9.27;6.20;;;;;;;3.28;69.87;99686.19;4994370;28;20453;-64
2022/02/13 10:14:46;;;;;;;10.05;7.03;;;;;;;3.31;69.40;99674.38;4994123;28;20089;-65
2022/02/13 10:17:32;;;;;;;10.30;6.57;;;;;;;3.35;69.28;99667.69;4994099;28;20049;-64
2022/02/13 10:20:25;;;;;;;10.52;6.53;;;;;;;3.38;69.93;99672.03;4994017;28;20108;-64
2022/02/13 10:23:12;;;;;;;9.25;7.55;;;;;;;3.43;69.53;99670.53;4993400;28;20061;-64
2022/02/13 10:25:55;;;;;;;12.05;7.78;;;;;;;3.47;69.66;99664.72;4994360;28;20086;-64
2022/02/13 10:28:53;;;;;;;9.23;6.22;;;;;;;3.49;69.60;99648.59;4993548;28;20053;-64
2022/02/13 10:31:39;;;;;;;9.38;6.97;;;;;;;3.52;69.77;99642.69;4993205;28;20093;-64
2022/02/13 10:34:26;;;;;;;8.85;7.03;;;;;;;3.56;70.01;99646.28;4992963;28;20109;-65
2022/02/13 10:37:10;;;;;;;9.52;6.47;;;;;;;3.58;69.07;99640.38;4994006;28;20050;-63
2022/02/13 10:39:54;;;;;;;8.63;7.20;;;;;;;3.63;69.38;99646.56;4993887;28;20521;-64
2022/02/13 10:42:38;;;;;;;7.93;6.60;;;;;;;3.64;69.62;99642.31;4994116;28;20085;-65
2022/02/13 10:45:25;;;;;;;9.38;7.03;;;;;;;3.68;69.77;99627.91;4993846;28;20042;-64
2022/02/13 10:48:15;;;;;;;14.23;6.80;;;;;;;3.71;69.08;99633.16;4993030;28;20113;-64
2022/02/13 10:50:59;;;;;;;8.57;6.60;;;;;;;3.73;69.03;99636.66;4993733;28;20409;-64
2022/02/13 10:53:44;;;;;;;8.57;6.47;;;;;;;3.77;69.38;99626.56;4993633;28;20105;-64
2022/02/13 10:56:28;;;;;;;9.23;6.63;;;;;;;3.78;69.70;99615.47;4993807;28;20073;-64
2022/02/13 10:59:15;;;;;;;;;;;;;;;3.80;69.93;99631.78;4993393;28;20052;-64
2022/02/13 11:02:00;;;;;;;9.40;6.82;;;;;;;3.80;69.32;99613.00;4995046;28;19925;-65
2022/02/13 11:04:45;;;;;;;10.18;6.57;;;;;;;3.84;69.66;99619.97;4996711;28;20133;-65
2022/02/13 11:07:30;;;;;;;;;;;;;;;3.87;70.03;99611.53;4998053;28;20057;-64
2022/02/13 11:10:29;;;;;;;8.38;6.82;;;;;;;3.88;69.51;99596.19;4996708;28;20273;-64
2022/02/13 11:13:17;;;;;;;8.05;5.57;;;;;;;3.91;69.41;99591.16;4996061;28;20080;-64
2022/02/13 11:16:01;;;;;;;12.05;6.55;;;;;;;3.93;69.69;99597.22;4996499;28;20534;-64
2022/02/13 11:18:45;;;;;;;9.02;6.70;;;;;;;3.98;69.83;99576.88;4996540;28;20410;-64
2022/02/13 11:21:30;;;;;;;;;;;;;;;4.00;70.01;99585.50;4996705;28;20108;-65
2022/02/13 11:24:28;;;;;;;7.40;5.90;;;;;;;4.03;69.05;99580.47;4996393;28;19920;-64
2022/02/13 11:27:17;;;;;;;7.30;5.50;;;;;;;4.08;69.38;99572.94;4996212;28;20050;-64
2022/02/13 11:30:03;;;;;;;8.02;5.93;;;;;;;4.09;69.74;99570.41;4997202;28;20117;-64
2022/02/13 11:32:49;;;;;;;6.85;5.35;;;;;;;4.13;69.76;99556.00;4995853;28;20113;-64
2022/02/13 11:35:52;;;;;;;8.85;6.22;;;;;;;4.16;69.80;99550.97;4997001;28;20398;-64
2022/02/13 11:38:51;;;;;;;8.10;6.05;;;;;;;4.19;69.79;99548.53;4996062;28;20053;-65
2022/02/13 11:41:50;;;;;;;8.98;5.60;;;;;;;4.21;69.74;99531.50;4995880;28;20048;-64
2022/02/13 11:44:37;;;;;;;9.80;5.53;;;;;;;4.22;69.40;99532.34;4996735;28;20052;-64
2022/02/13 11:47:40;;;;;;;12.10;5.90;;;;;;;4.24;69.45;99530.72;4996864;28;20112;-65
2022/02/13 11:50:26;;;;;;;8.50;5.78;;;;;;;4.27;69.49;99515.44;4995835;28;20054;-64
2022/02/13 11:53:24;;;;;;;7.70;6.15;;;;;;;4.30;69.59;99514.66;4996531;28;20104;-64
2022/02/13 11:56:20;;;;;;;22.90;7.32;;;;;;;4.34;69.72;99498.53;4995603;28;20116;-64
2022/02/13 11:59:07;;;;;;;7.47;5.32;;;;;;;4.38;69.29;99479.88;4996692;28;20061;-64
2022/02/13 12:01:51;;;;;;;8.82;5.25;;;;;;;4.39;69.82;99476.47;4995427;28;20054;-65
2022/02/13 12:05:07;;;;;;;12.02;6.00;;;;;;;4.40;69.94;99453.41;4996027;28;20528;-64
2022/02/13 12:07:53;;;;;;;11.02;6.50;;;;;;;4.44;69.90;99471.47;4996617;28;20049;-64
2022/02/13 12:10:45;;;;;;;16.40;6.53;;;;;;;4.47;69.83;99446.78;4995604;28;20077;-64
2022/02/13 12:13:29;;;;;;;9.88;6.55;;;;;;;4.48;70.04;99443.38;4994460;28;20089;-65
2022/02/13 12:16:13;;;;;;;15.07;7.50;;;;;;;4.50;70.02;99441.75;4996500;28;20052;-64
2022/02/13 12:18:57;;;;;;;8.38;7.22;;;;;;;4.53;69.37;99441.84;4995731;28;20092;-64
2022/02/13 12:21:41;;;;;;;11.63;7.35;;;;;;;4.56;70.14;99429.13;4995845;28;20053;-65
2022/02/13 12:24:26;;;;;;;9.10;6.70;;;;;;;4.61;70.15;99434.38;4996372;28;20411;-65
2022/02/13 12:27:11;;;;;;;13.23;7.80;;;;;;;4.62;69.71;99432.66;4996665;28;20116;-64
2022/02/13 12:30:00;;;;;;;12.32;7.32;;;;;;;4.65;69.76;99422.50;4996196;28;20092;-65
2022/02/13 12:32:47;;;;;;;13.32;6.82;;;;;;;4.67;70.25;99413.16;4995816;28;20093;-64
2022/02/13 12:35:34;;;;;;;8.38;5.70;;;;;;;4.68;70.75;99407.19;4995053;28;20081;-64
2022/02/13 12:38:18;;;;;;;11.95;6.95;;;;;;;4.69;70.50;99394.41;4995038;28;20402;-65
2022/02/13 12:41:03;;;;;;;11.18;6.18;;;;;;;4.70;70.05;99387.59;4996015;28;20519;-64
2022/02/13 12:43:47;;;;;;;;;;;;;;;4.73;70.85;99385.09;4996282;28;20520;-64
2022/02/13 12:46:31;;;;;;;9.05;6.90;;;;;;;4.75;70.38;99380.00;4995077;28;20332;-64
2022/02/13 12:49:18;;;;;;;13.38;7.88;;;;;;;4.78;70.27;99386.09;4994957;28;20254;-65
2022/02/13 12:52:04;;;;;;;12.60;7.40;;;;;;;4.81;70.26;99350.25;4995420;28;20413;-64
2022/02/13 12:54:49;;;;;;;21.45;7.82;;;;;;;4.82;70.25;99339.16;4995449;28;20045;-65
2022/02/13 12:57:32;;;;;;;12.02;6.82;;;;;;;4.88;70.20;99338.44;4995421;28;20079;-64
2022/02/13 13:00:21;;;;;;;15.82;7.75;;;;;;;4.96;70.74;99330.94;4995366;28;20410;-65
2022/02/13 13:03:08;;;;;;;13.38;7.90;;;;;;;5.01;70.23;99309.69;4995312;28;20422;-64
2022/02/13 13:05:52;;;;;;;12.20;6.30;;;;;;;5.06;70.83;99304.66;4994359;28;20083;-65
2022/02/13 13:08:41;;;;;;;12.82;7.53;;;;;;;5.10;70.68;99300.50;4995221;28;20481;-65
2022/02/13 13:11:30;;;;;;;11.02;6.80;;;;;;;5.14;71.24;99294.59;4994194;28;20077;-65
2022/02/13 13:14:20;;;;;;;9.82;6.90;;;;;;;5.14;70.68;99279.19;4994351;28;20100;-65